createdAt,value
2023-04-24T00:02:01.977Z,12.69
2023-04-24T00:04:28.945Z,12.68
2023-04-24T00:06:58.554Z,12.68
2023-04-24T00:09:25.538Z,12.70
2023-04-24T00:11:54.578Z,12.77
2023-04-24T00:14:21.439Z,12.77
2023-04-24T00:16:48.273Z,12.72
2023-04-24T00:19:15.118Z,12.62
2023-04-24T00:21:42.647Z,12.55
2023-04-24T00:24:12.546Z,12.55
2023-04-24T00:26:39.362Z,12.53
2023-04-24T00:29:06.496Z,12.48
2023-04-24T00:31:35.777Z,12.45
2023-04-24T00:34:04.454Z,12.53
2023-04-24T00:36:31.966Z,12.48
2023-04-24T00:38:59.079Z,12.48
2023-04-24T00:41:26.640Z,12.48
2023-04-24T00:43:53.917Z,12.48
2023-04-24T00:46:22.192Z,12.48
2023-04-24T00:48:49.224Z,12.48
2023-04-24T00:51:16.805Z,12.50
2023-04-24T00:53:43.638Z,12.47
2023-04-24T00:56:11.169Z,12.46
2023-04-24T00:58:38.380Z,12.50
2023-04-24T01:01:07.917Z,12.48
2023-04-24T01:03:38.100Z,12.52
2023-04-24T01:06:06.417Z,12.48
2023-04-24T01:08:36.390Z,12.54
2023-04-24T01:11:05.852Z,12.47
2023-04-24T01:13:34.368Z,12.47
2023-04-24T01:16:02.398Z,12.46
2023-04-24T01:18:29.895Z,12.42
2023-04-24T01:21:05.124Z,12.39
2023-04-24T01:23:31.926Z,12.45
2023-04-24T01:25:58.806Z,12.50
2023-04-24T01:28:25.816Z,12.52
2023-04-24T01:30:53.635Z,12.42
2023-04-24T01:33:22.987Z,12.39
2023-04-24T01:35:51.308Z,12.39
2023-04-24T01:38:18.198Z,12.39
2023-04-24T01:40:45.198Z,12.38
2023-04-24T01:43:16.617Z,12.42
2023-04-24T01:45:43.426Z,12.43
2023-04-24T01:48:10.545Z,12.42
2023-04-24T01:50:37.366Z,12.42
2023-04-24T01:53:04.443Z,12.39
2023-04-24T01:55:31.510Z,12.40
2023-04-24T01:58:00.707Z,12.41
2023-04-24T02:00:27.557Z,12.44
2023-04-24T02:02:54.525Z,12.44
2023-04-24T02:05:24.553Z,12.42
2023-04-24T02:07:51.391Z,12.35
2023-04-24T02:10:18.162Z,12.23
2023-04-24T02:12:45.187Z,12.23
2023-04-24T02:15:13.224Z,12.26
2023-04-24T02:17:44.738Z,12.26
2023-04-24T02:20:11.793Z,12.24
2023-04-24T02:22:41.273Z,12.20
2023-04-24T02:25:09.011Z,12.16
2023-04-24T02:27:36.413Z,12.16
2023-04-24T02:30:10.427Z,12.16
2023-04-24T02:32:37.371Z,12.15
2023-04-24T02:35:04.523Z,12.14
2023-04-24T02:37:31.336Z,12.12
2023-04-24T02:39:58.192Z,12.17
2023-04-24T02:42:25.178Z,12.14
2023-04-24T02:44:52.355Z,12.08
2023-04-24T02:47:19.244Z,12.09
2023-04-24T02:49:46.194Z,12.07
2023-04-24T02:52:13.166Z,11.97
2023-04-24T02:54:39.975Z,11.94
2023-04-24T02:57:07.350Z,11.91
2023-04-24T02:59:34.277Z,11.92
2023-04-24T03:02:01.254Z,11.95
2023-04-24T03:04:28.974Z,11.94
2023-04-24T03:06:55.898Z,11.95
2023-04-24T03:09:23.061Z,11.96
2023-04-24T03:11:50.471Z,11.87
2023-04-24T03:14:17.694Z,11.83
2023-04-24T03:16:44.490Z,11.81
2023-04-24T03:19:11.834Z,11.77
2023-04-24T03:21:44.652Z,11.81
2023-04-24T03:24:11.475Z,11.78
2023-04-24T03:26:38.247Z,11.79
2023-04-24T03:29:05.081Z,11.76
2023-04-24T03:31:31.949Z,11.72
2023-04-24T03:33:58.765Z,11.68
2023-04-24T03:36:27.035Z,11.66
2023-04-24T03:38:53.812Z,11.63
2023-04-24T03:41:20.551Z,11.59
2023-04-24T03:43:47.436Z,11.46
2023-04-24T03:46:14.546Z,11.47
2023-04-24T03:48:41.842Z,11.46
2023-04-24T03:51:08.767Z,11.39
2023-04-24T03:53:35.555Z,11.26
2023-04-24T03:56:02.538Z,11.21
2023-04-24T03:58:29.440Z,11.16
2023-04-24T04:00:57.850Z,11.15
2023-04-24T04:03:25.003Z,11.12
2023-04-24T04:05:52.350Z,11.12
2023-04-24T04:08:19.111Z,11.04
2023-04-24T04:10:46.205Z,11.05
2023-04-24T04:13:13.326Z,10.99
2023-04-24T04:15:40.261Z,10.82
2023-04-24T04:18:07.384Z,10.82
2023-04-24T04:20:34.125Z,10.83
2023-04-24T04:23:01.195Z,10.79
2023-04-24T04:25:27.957Z,10.80
2023-04-24T04:27:54.804Z,10.70
2023-04-24T04:30:22.976Z,10.65
2023-04-24T04:32:49.748Z,10.67
2023-04-24T04:35:16.741Z,10.70
2023-04-24T04:37:43.514Z,10.71
2023-04-24T04:40:13.317Z,10.72
2023-04-24T04:42:41.296Z,10.62
2023-04-24T04:45:12.542Z,10.69
2023-04-24T04:47:40.538Z,10.66
2023-04-24T04:50:07.940Z,10.71
2023-04-24T04:52:34.694Z,10.75
2023-04-24T04:55:01.407Z,10.77
2023-04-24T04:57:28.375Z,10.68
2023-04-24T04:59:56.020Z,10.72
2023-04-24T05:02:22.857Z,10.68
2023-04-24T05:04:49.915Z,10.70
2023-04-24T05:07:17.036Z,10.67
2023-04-24T05:09:44.837Z,10.68
2023-04-24T05:12:11.967Z,10.73
2023-04-24T05:14:38.750Z,10.76
2023-04-24T05:17:05.738Z,10.74
2023-04-24T05:19:37.010Z,10.72
2023-04-24T05:22:13.024Z,10.72
2023-04-24T05:24:39.901Z,10.68
2023-04-24T05:27:06.830Z,10.73
2023-04-24T05:29:34.208Z,10.66
2023-04-24T05:32:02.199Z,10.74
2023-04-24T05:34:29.016Z,10.71
2023-04-24T05:36:55.972Z,10.76
2023-04-24T05:39:22.812Z,10.81
2023-04-24T05:41:49.495Z,10.93
2023-04-24T05:44:16.361Z,10.96
2023-04-24T05:46:43.224Z,10.97
2023-04-24T05:49:10.075Z,11.11
2023-04-24T05:51:36.997Z,11.19
2023-04-24T05:54:04.216Z,11.27
2023-04-24T05:56:31.680Z,11.31
2023-04-24T05:58:58.629Z,11.44
2023-04-24T06:01:26.117Z,11.51
2023-04-24T06:03:53.895Z,11.56
2023-04-24T06:06:20.978Z,11.60
2023-04-24T06:08:47.758Z,11.68
2023-04-24T06:11:15.065Z,11.79
2023-04-24T06:13:41.913Z,11.81
2023-04-24T06:16:09.063Z,11.79
2023-04-24T06:18:36.315Z,11.77
2023-04-24T06:21:03.634Z,11.79
2023-04-24T06:23:33.296Z,11.81
2023-04-24T06:26:00.767Z,11.92
2023-04-24T06:28:27.513Z,12.00
2023-04-24T06:30:54.440Z,11.92
2023-04-24T06:33:22.960Z,11.83
2023-04-24T06:35:50.682Z,11.80
2023-04-24T06:38:17.626Z,11.78
2023-04-24T06:40:46.795Z,11.77
2023-04-24T06:43:13.648Z,11.83
2023-04-24T06:45:40.799Z,11.83
2023-04-24T06:48:08.199Z,11.82
2023-04-24T06:50:35.026Z,11.89
2023-04-24T06:53:01.788Z,11.90
2023-04-24T06:55:28.755Z,11.84
2023-04-24T06:57:55.713Z,11.73
2023-04-24T07:00:25.021Z,11.76
2023-04-24T07:02:51.963Z,11.83
2023-04-24T07:05:20.931Z,11.91
2023-04-24T07:07:49.964Z,11.98
2023-04-24T07:10:20.632Z,11.91
2023-04-24T07:12:47.931Z,11.88
2023-04-24T07:15:14.980Z,11.87
2023-04-24T07:17:44.456Z,11.78
2023-04-24T07:20:12.412Z,11.81
2023-04-24T07:22:40.052Z,11.92
2023-04-24T07:27:51.118Z,11.92
2023-04-24T07:30:18.037Z,11.88
2023-04-24T07:32:44.933Z,11.84
2023-04-24T07:35:11.818Z,11.83
2023-04-24T07:37:39.751Z,11.77
2023-04-24T07:40:07.621Z,11.77
2023-04-24T07:42:35.580Z,11.72
2023-04-24T07:45:02.520Z,11.80
2023-04-24T07:47:30.603Z,11.84
2023-04-24T07:49:57.640Z,11.94
2023-04-24T07:52:25.395Z,12.07
2023-04-24T07:54:53.696Z,12.13
2023-04-24T07:57:20.752Z,12.38
2023-04-24T07:59:47.478Z,12.36
2023-04-24T08:02:14.373Z,12.31
2023-04-24T08:04:41.722Z,12.41
2023-04-24T08:07:09.189Z,12.71
2023-04-24T08:09:36.131Z,12.89
2023-04-24T08:12:03.427Z,13.04
2023-04-24T08:14:30.259Z,13.31
2023-04-24T08:16:57.402Z,13.50
2023-04-24T08:19:24.293Z,13.46
2023-04-24T08:21:51.049Z,13.78
2023-04-24T08:24:17.896Z,14.22
2023-04-24T08:26:44.908Z,14.45
2023-04-24T08:29:11.826Z,14.40
2023-04-24T08:31:38.700Z,13.98
2023-04-24T08:34:05.494Z,13.59
2023-04-24T08:36:46.017Z,13.31
2023-04-24T08:39:14.430Z,13.11
2023-04-24T08:41:46.790Z,13.07
2023-04-24T08:44:15.734Z,13.12
2023-04-24T08:46:48.613Z,13.20
2023-04-24T08:49:19.761Z,13.54
2023-04-24T08:51:48.555Z,14.16
2023-04-24T08:54:15.898Z,14.01
2023-04-24T08:56:46.051Z,13.72
2023-04-24T08:59:13.667Z,13.63
2023-04-24T09:01:42.286Z,13.38
2023-04-24T09:04:15.082Z,13.18
2023-04-24T09:06:43.215Z,13.09
2023-04-24T09:09:12.659Z,13.10
2023-04-24T09:11:42.624Z,13.13
2023-04-24T09:14:11.914Z,13.18
2023-04-24T09:16:38.992Z,13.40
2023-04-24T09:19:06.171Z,13.72
2023-04-24T09:21:35.758Z,14.04
2023-04-24T09:24:07.005Z,14.30
2023-04-24T09:26:37.483Z,14.52
2023-04-24T09:29:05.938Z,14.83
2023-04-24T09:31:33.271Z,14.84
2023-04-24T09:34:08.971Z,15.41
2023-04-24T09:36:42.468Z,15.50
2023-04-24T09:39:17.299Z,15.44
2023-04-24T09:42:01.018Z,15.22
2023-04-24T09:44:29.631Z,15.32
2023-04-24T09:46:59.433Z,15.67
2023-04-24T09:49:34.234Z,15.08
2023-04-24T09:52:13.452Z,14.58
2023-04-24T09:54:41.151Z,14.22
2023-04-24T09:57:11.225Z,13.89
2023-04-24T09:59:45.625Z,13.66
2023-04-24T10:02:20.882Z,13.59
2023-04-24T10:05:01.096Z,13.41
2023-04-24T10:07:29.633Z,13.31
2023-04-24T10:09:57.074Z,13.42
2023-04-24T10:12:26.066Z,13.45
2023-04-24T10:14:54.430Z,13.43
2023-04-24T10:17:23.027Z,13.30
2023-04-24T10:19:50.242Z,13.07
2023-04-24T10:22:18.764Z,12.89
2023-04-24T10:24:46.343Z,12.90
2023-04-24T10:27:16.406Z,12.82
2023-04-24T10:29:45.868Z,12.61
2023-04-24T10:32:12.752Z,12.51
2023-04-24T10:34:39.811Z,12.45
2023-04-24T10:37:07.028Z,12.64
2023-04-24T10:39:34.529Z,12.90
2023-04-24T10:42:01.739Z,13.32
2023-04-24T10:44:37.874Z,13.93
2023-04-24T10:47:05.023Z,14.31
2023-04-24T10:49:33.186Z,14.68
2023-04-24T10:52:07.965Z,15.44
2023-04-24T10:54:47.742Z,15.71
2023-04-24T10:57:29.597Z,16.05
2023-04-24T11:00:21.214Z,15.86
2023-04-24T11:02:52.594Z,15.49
2023-04-24T11:05:22.506Z,15.32
2023-04-24T11:08:17.009Z,15.57
2023-04-24T11:10:54.938Z,16.23
2023-04-24T11:13:29.188Z,16.06
2023-04-24T11:16:24.162Z,15.39
2023-04-24T11:18:58.292Z,14.79
2023-04-24T11:21:25.186Z,14.43
2023-04-24T11:23:51.978Z,14.70
2023-04-24T11:26:31.262Z,14.97
2023-04-24T11:29:08.985Z,15.22
2023-04-24T11:31:51.005Z,15.09
2023-04-24T11:34:19.249Z,14.98
2023-04-24T11:36:48.953Z,14.71
2023-04-24T11:39:16.643Z,14.31
2023-04-24T11:41:43.526Z,14.17
2023-04-24T11:44:12.497Z,14.28
2023-04-24T11:46:41.103Z,14.15
2023-04-24T11:49:08.350Z,13.98
2023-04-24T11:51:44.498Z,13.79
2023-04-24T11:54:22.105Z,13.83
2023-04-24T11:56:50.605Z,13.81
2023-04-24T11:59:17.467Z,13.70
2023-04-24T12:01:48.339Z,13.46
2023-04-24T12:04:18.477Z,13.34
2023-04-24T12:07:06.255Z,13.58
2023-04-24T12:09:56.635Z,13.50
2023-04-24T12:12:28.354Z,13.75
2023-04-24T12:15:00.770Z,13.97
2023-04-24T12:17:32.382Z,13.83
2023-04-24T12:20:02.149Z,14.02
2023-04-24T12:22:44.974Z,13.96
2023-04-24T12:25:12.583Z,13.86
2023-04-24T12:27:39.486Z,13.54
2023-04-24T12:30:12.448Z,13.07
2023-04-24T12:32:48.167Z,12.85
2023-04-24T12:35:21.923Z,12.87
2023-04-24T12:37:49.292Z,12.94
2023-04-24T12:40:16.779Z,12.79
2023-04-24T12:42:51.442Z,12.92
2023-04-24T12:45:20.243Z,13.01
2023-04-24T12:47:47.637Z,12.94
2023-04-24T12:50:18.359Z,13.38
2023-04-24T12:52:46.400Z,13.48
2023-04-24T12:55:13.445Z,13.54
2023-04-24T12:57:41.575Z,13.66
2023-04-24T13:00:10.948Z,13.77
2023-04-24T13:02:38.234Z,13.98
2023-04-24T13:05:06.700Z,14.69
2023-04-24T13:07:33.932Z,14.65
2023-04-24T13:10:01.166Z,14.57
2023-04-24T13:12:27.999Z,14.72
2023-04-24T13:14:55.250Z,15.00
2023-04-24T13:17:23.572Z,15.65
2023-04-24T13:19:52.732Z,15.29
2023-04-24T13:22:19.855Z,15.00
2023-04-24T13:24:49.745Z,14.64
2023-04-24T13:27:18.265Z,14.62
2023-04-24T13:29:48.778Z,14.65
2023-04-24T13:32:16.194Z,14.57
2023-04-24T13:34:44.250Z,14.43
2023-04-24T13:37:11.055Z,14.47
2023-04-24T13:39:37.891Z,14.63
2023-04-24T13:42:05.218Z,14.48
2023-04-24T13:47:13.265Z,14.24
2023-04-24T13:49:42.085Z,14.05
2023-04-24T13:52:11.168Z,15.70
2023-04-24T13:54:38.093Z,17.06
2023-04-24T13:57:05.158Z,18.02
2023-04-24T13:59:36.136Z,18.32
2023-04-24T14:02:03.052Z,18.17
2023-04-24T14:04:33.637Z,17.02
2023-04-24T14:07:02.004Z,18.30
2023-04-24T14:09:31.035Z,18.71
2023-04-24T14:12:00.868Z,18.10
2023-04-24T14:14:27.805Z,18.55
2023-04-24T14:16:55.147Z,17.06
2023-04-24T14:19:22.050Z,16.29
2023-04-24T14:21:50.565Z,16.12
2023-04-24T14:24:17.407Z,16.29
2023-04-24T14:26:44.209Z,17.49
2023-04-24T14:29:15.177Z,18.79
2023-04-24T14:31:43.784Z,19.13
2023-04-24T14:34:11.321Z,19.17
2023-04-24T14:36:40.805Z,18.26
2023-04-24T14:39:08.127Z,17.30
2023-04-24T14:41:36.779Z,16.40
2023-04-24T14:44:04.610Z,15.95
2023-04-24T14:46:32.082Z,15.58
2023-04-24T14:48:59.023Z,15.02
2023-04-24T14:51:26.508Z,15.38
2023-04-24T14:53:53.578Z,16.50
2023-04-24T14:56:20.575Z,16.47
2023-04-24T14:58:47.469Z,16.61
2023-04-24T15:01:14.279Z,17.32
2023-04-24T15:03:41.454Z,16.94
2023-04-24T15:06:08.402Z,16.26
2023-04-24T15:08:35.216Z,16.02
2023-04-24T15:11:02.790Z,16.09
2023-04-24T15:13:29.608Z,16.39
2023-04-24T15:15:56.547Z,16.00
2023-04-24T15:18:23.363Z,16.03
2023-04-24T15:20:50.631Z,15.60
2023-04-24T15:23:17.615Z,15.16
2023-04-24T15:25:44.870Z,14.84
2023-04-24T15:28:12.071Z,14.60
2023-04-24T15:30:39.005Z,14.20
2023-04-24T15:33:06.355Z,13.97
2023-04-24T15:35:33.264Z,14.00
2023-04-24T15:38:00.247Z,14.07
2023-04-24T15:40:27.231Z,14.10
2023-04-24T15:42:54.070Z,14.06
2023-04-24T15:45:21.042Z,14.05
2023-04-24T15:47:48.146Z,14.16
2023-04-24T15:50:16.941Z,14.26
2023-04-24T15:52:44.297Z,14.31
2023-04-24T15:55:11.631Z,14.30
2023-04-24T15:57:40.562Z,14.25
2023-04-24T16:00:09.667Z,14.25
2023-04-24T16:02:36.633Z,14.13
2023-04-24T16:05:03.977Z,14.14
2023-04-24T16:07:31.665Z,13.98
2023-04-24T16:09:58.507Z,13.96
2023-04-24T16:12:33.738Z,13.85
2023-04-24T16:15:01.308Z,13.82
2023-04-24T16:17:28.121Z,13.82
2023-04-24T16:19:54.910Z,13.79
2023-04-24T16:22:22.144Z,13.76
2023-04-24T16:24:49.009Z,13.53
2023-04-24T16:27:16.232Z,13.47
2023-04-24T16:29:47.101Z,13.48
2023-04-24T16:32:14.048Z,13.41
2023-04-24T16:34:40.971Z,13.40
2023-04-24T16:37:08.398Z,13.39
2023-04-24T16:39:35.757Z,13.45
2023-04-24T16:42:02.699Z,13.56
2023-04-24T16:44:29.499Z,13.51
2023-04-24T16:46:56.883Z,13.53
2023-04-24T16:49:24.084Z,13.60
2023-04-24T16:51:51.313Z,13.52
2023-04-24T16:54:18.673Z,13.42
2023-04-24T16:56:45.942Z,13.45
2023-04-24T16:59:13.389Z,13.45
2023-04-24T17:01:40.547Z,13.49
2023-04-24T17:04:14.544Z,13.44
2023-04-24T17:06:41.464Z,13.37
2023-04-24T17:09:08.943Z,13.26
2023-04-24T17:11:36.425Z,13.18
2023-04-24T17:14:06.589Z,13.12
2023-04-24T17:16:37.608Z,13.11
2023-04-24T17:19:06.071Z,13.11
2023-04-24T17:21:33.744Z,13.15
2023-04-24T17:24:00.596Z,13.13
2023-04-24T17:26:28.700Z,13.14
2023-04-24T17:28:55.707Z,13.14
2023-04-24T17:31:23.439Z,13.21
2023-04-24T17:33:50.614Z,13.17
2023-04-24T17:36:17.967Z,13.10
2023-04-24T17:38:44.901Z,13.12
2023-04-24T17:41:17.378Z,13.11
2023-04-24T17:43:45.593Z,13.09
2023-04-24T17:46:13.206Z,13.14
2023-04-24T17:48:40.918Z,13.11
2023-04-24T17:51:08.293Z,13.09
2023-04-24T17:53:35.228Z,13.11
2023-04-24T17:56:03.789Z,13.06
2023-04-24T17:58:31.379Z,13.08
2023-04-24T18:00:58.341Z,12.98
2023-04-24T18:03:25.529Z,12.85
2023-04-24T18:05:52.674Z,12.82
2023-04-24T18:08:19.684Z,12.78
2023-04-24T18:10:46.768Z,12.80
2023-04-24T18:13:13.829Z,12.76
2023-04-24T18:15:43.212Z,12.77
2023-04-24T18:18:11.556Z,12.75
2023-04-24T18:20:39.857Z,12.70
2023-04-24T18:23:06.810Z,12.63
2023-04-24T18:25:33.650Z,12.54
2023-04-24T18:28:00.635Z,12.54
2023-04-24T18:30:28.291Z,12.49
2023-04-24T18:32:57.799Z,12.51
2023-04-24T18:35:24.713Z,12.56
2023-04-24T18:37:53.165Z,12.56
2023-04-24T18:40:20.359Z,12.48
2023-04-24T18:42:50.292Z,12.43
2023-04-24T18:45:17.164Z,12.41
2023-04-24T18:47:44.362Z,12.38
2023-04-24T18:50:12.343Z,12.31
2023-04-24T18:52:39.852Z,12.38
2023-04-24T18:55:07.732Z,12.38
2023-04-24T18:57:34.583Z,12.33
2023-04-24T19:00:01.755Z,12.28
2023-04-24T19:02:29.321Z,12.20
2023-04-24T19:04:57.246Z,12.17
2023-04-24T19:07:24.592Z,12.15
2023-04-24T19:09:51.733Z,12.11
2023-04-24T19:12:22.913Z,12.04
2023-04-24T19:14:55.883Z,12.01
2023-04-24T19:17:25.153Z,12.02
2023-04-24T19:19:52.477Z,11.95
2023-04-24T19:22:22.504Z,11.90
2023-04-24T19:24:49.385Z,11.88
2023-04-24T19:27:16.220Z,11.84
2023-04-24T19:29:43.156Z,11.86
2023-04-24T19:32:12.861Z,11.88
2023-04-24T19:34:40.689Z,11.83
2023-04-24T19:37:08.161Z,11.80
2023-04-24T19:39:35.162Z,11.79
2023-04-24T19:42:05.855Z,11.75
2023-04-24T19:44:40.316Z,11.70
2023-04-24T19:47:07.301Z,11.69
2023-04-24T19:49:34.143Z,11.63
2023-04-24T19:52:01.176Z,11.52
2023-04-24T19:54:31.131Z,11.49
2023-04-24T19:56:58.228Z,11.49
2023-04-24T19:59:25.213Z,11.43
2023-04-24T20:01:52.886Z,11.38
2023-04-24T20:04:23.094Z,11.25
2023-04-24T20:06:51.259Z,11.14
2023-04-24T20:09:18.080Z,11.09
2023-04-24T20:11:50.992Z,11.05
2023-04-24T20:14:17.831Z,11.03
2023-04-24T20:16:44.854Z,11.00
2023-04-24T20:19:11.793Z,11.02
2023-04-24T20:21:38.756Z,11.07
2023-04-24T20:24:08.567Z,11.10
2023-04-24T20:26:36.275Z,11.05
2023-04-24T20:29:09.817Z,10.94
2023-04-24T20:31:37.215Z,10.87
2023-04-24T20:34:05.573Z,10.94
2023-04-24T20:36:33.994Z,11.00
2023-04-24T20:39:01.418Z,11.05
2023-04-24T20:41:28.428Z,11.06
2023-04-24T20:43:55.283Z,11.11
2023-04-24T20:46:22.531Z,11.12
2023-04-24T20:48:50.269Z,11.12
2023-04-24T20:51:17.406Z,11.04
2023-04-24T20:53:44.764Z,10.92
2023-04-24T20:56:11.918Z,10.81
2023-04-24T20:58:40.825Z,10.64
2023-04-24T21:01:18.619Z,10.52
2023-04-24T21:03:48.263Z,10.47
2023-04-24T21:06:16.089Z,10.49
2023-04-24T21:08:45.716Z,10.44
2023-04-24T21:11:12.851Z,10.39
2023-04-24T21:13:45.889Z,10.44
2023-04-24T21:16:14.200Z,10.37
2023-04-24T21:18:41.415Z,10.27
2023-04-24T21:21:09.531Z,10.16
2023-04-24T21:23:36.740Z,10.13
2023-04-24T21:26:07.566Z,10.12
2023-04-24T21:28:34.693Z,9.98
2023-04-24T21:31:01.745Z,9.83
2023-04-24T21:33:28.921Z,9.74
2023-04-24T21:35:56.690Z,9.69
2023-04-24T21:38:24.961Z,9.65
2023-04-24T21:40:52.535Z,9.57
2023-04-24T21:43:25.327Z,9.57
2023-04-24T21:45:57.728Z,9.63
2023-04-24T21:48:24.552Z,9.60
2023-04-24T21:50:51.497Z,9.50
2023-04-24T21:53:18.271Z,9.51
2023-04-24T21:55:45.788Z,9.61
2023-04-24T21:58:12.826Z,9.58
2023-04-24T22:00:39.650Z,9.48
2023-04-24T22:03:06.535Z,9.54
2023-04-24T22:05:33.401Z,9.45
2023-04-24T22:08:00.304Z,9.28
2023-04-24T22:10:27.082Z,9.33
2023-04-24T22:12:54.672Z,9.26
2023-04-24T22:15:23.530Z,9.31
2023-04-24T22:17:53.206Z,9.39
2023-04-24T22:20:21.497Z,9.38
2023-04-24T22:22:48.659Z,9.43
2023-04-24T22:25:18.111Z,9.48
2023-04-24T22:27:44.833Z,9.47
2023-04-24T22:30:12.211Z,9.54
2023-04-24T22:32:41.462Z,9.61
2023-04-24T22:35:10.920Z,9.69
2023-04-24T22:37:39.739Z,9.80
2023-04-24T22:40:10.248Z,9.90
2023-04-24T22:42:38.223Z,9.80
2023-04-24T22:45:08.349Z,9.75
2023-04-24T22:47:35.955Z,9.73
2023-04-24T22:50:03.401Z,9.64
2023-04-24T22:52:30.291Z,9.67
2023-04-24T22:55:00.689Z,9.74
2023-04-24T22:57:29.652Z,9.80
2023-04-24T22:59:57.275Z,9.78
2023-04-24T23:02:24.205Z,9.88
2023-04-24T23:04:51.597Z,9.98
2023-04-24T23:07:18.433Z,10.06
2023-04-24T23:09:46.352Z,10.09
2023-04-24T23:12:13.565Z,10.12
2023-04-24T23:14:40.605Z,10.13
2023-04-24T23:17:07.356Z,10.18
2023-04-24T23:19:34.184Z,10.22
2023-04-24T23:22:01.097Z,10.26
2023-04-24T23:24:28.022Z,10.26
2023-04-24T23:26:54.737Z,10.25
2023-04-24T23:29:23.086Z,10.24
2023-04-24T23:31:49.929Z,10.27
2023-04-24T23:34:18.701Z,10.30
2023-04-24T23:36:47.219Z,10.25
2023-04-24T23:39:14.203Z,10.20
2023-04-24T23:41:43.099Z,10.02
2023-04-24T23:44:12.994Z,9.86
2023-04-24T23:46:39.777Z,9.80
2023-04-24T23:49:08.860Z,9.79
2023-04-24T23:51:35.730Z,9.84
2023-04-24T23:54:02.627Z,9.86
2023-04-24T23:56:29.465Z,9.77
2023-04-24T23:58:56.553Z,9.73
